sensor_id;sensor_type;location;lat;lon;timestamp;P1;durP1;ratioP1;P2;durP2;ratioP2
31378;SDS011;61664;48.112;11.662;2023-08-06T00:01:48;1.73;;;1.63;;
31378;SDS011;61664;48.112;11.662;2023-08-06T00:04:15;1.92;;;1.83;;
31378;SDS011;61664;48.112;11.662;2023-08-06T00:06:42;1.98;;;1.88;;
31378;SDS011;61664;48.112;11.662;2023-08-06T00:09:09;1.50;;;1.40;;
31378;SDS011;61664;48.112;11.662;2023-08-06T00:11:36;1.70;;;1.60;;
31378;SDS011;61664;48.112;11.662;2023-08-06T00:14:03;1.40;;;1.30;;
31378;SDS011;61664;48.112;11.662;2023-08-06T00:16:30;1.85;;;1.75;;
31378;SDS011;61664;48.112;11.662;2023-08-06T00:18:57;1.48;;;1.38;;
31378;SDS011;61664;48.112;11.662;2023-08-06T00:21:24;1.70;;;1.60;;
31378;SDS011;61664;48.112;11.662;2023-08-06T00:23:50;2.03;;;1.80;;
31378;SDS011;61664;48.112;11.662;2023-08-06T00:26:18;1.80;;;1.70;;
31378;SDS011;61664;48.112;11.662;2023-08-06T00:28:45;2.33;;;2.13;;
31378;SDS011;61664;48.112;11.662;2023-08-06T00:31:12;2.00;;;1.90;;
31378;SDS011;61664;48.112;11.662;2023-08-06T00:33:39;1.70;;;1.60;;
31378;SDS011;61664;48.112;11.662;2023-08-06T00:36:06;1.88;;;1.77;;
31378;SDS011;61664;48.112;11.662;2023-08-06T00:38:34;2.40;;;2.25;;
31378;SDS011;61664;48.112;11.662;2023-08-06T00:41:01;1.83;;;1.73;;
31378;SDS011;61664;48.112;11.662;2023-08-06T00:43:28;1.80;;;1.70;;
31378;SDS011;61664;48.112;11.662;2023-08-06T00:45:55;3.25;;;2.00;;
31378;SDS011;61664;48.112;11.662;2023-08-06T00:48:22;1.92;;;1.83;;
31378;SDS011;61664;48.112;11.662;2023-08-06T00:50:49;2.00;;;1.90;;
31378;SDS011;61664;48.112;11.662;2023-08-06T00:53:16;1.70;;;1.60;;
31378;SDS011;61664;48.112;11.662;2023-08-06T00:55:43;1.85;;;1.75;;
31378;SDS011;61664;48.112;11.662;2023-08-06T00:58:12;1.65;;;1.55;;
31378;SDS011;61664;48.112;11.662;2023-08-06T01:00:41;1.70;;;1.60;;
31378;SDS011;61664;48.112;11.662;2023-08-06T01:03:08;1.70;;;1.60;;
31378;SDS011;61664;48.112;11.662;2023-08-06T01:05:35;1.67;;;1.58;;
31378;SDS011;61664;48.112;11.662;2023-08-06T01:08:08;1.75;;;1.45;;
31378;SDS011;61664;48.112;11.662;2023-08-06T01:17:14;1.10;;;1.10;;
31378;SDS011;61664;48.112;11.662;2023-08-06T01:19:41;1.33;;;0.98;;
31378;SDS011;61664;48.112;11.662;2023-08-06T01:22:08;1.77;;;1.67;;
31378;SDS011;61664;48.112;11.662;2023-08-06T01:24:35;1.52;;;1.42;;
31378;SDS011;61664;48.112;11.662;2023-08-06T01:29:41;4.93;;;1.75;;
31378;SDS011;61664;48.112;11.662;2023-08-06T01:32:18;1.40;;;1.30;;
31378;SDS011;61664;48.112;11.662;2023-08-06T01:34:48;1.50;;;1.40;;
31378;SDS011;61664;48.112;11.662;2023-08-06T01:37:16;2.13;;;2.03;;
31378;SDS011;61664;48.112;11.662;2023-08-06T01:39:43;1.92;;;1.83;;
31378;SDS011;61664;48.112;11.662;2023-08-06T01:42:10;1.60;;;1.50;;
31378;SDS011;61664;48.112;11.662;2023-08-06T01:44:37;2.00;;;1.85;;
31378;SDS011;61664;48.112;11.662;2023-08-06T01:47:04;1.98;;;1.88;;
31378;SDS011;61664;48.112;11.662;2023-08-06T01:49:31;2.05;;;1.95;;
31378;SDS011;61664;48.112;11.662;2023-08-06T01:51:58;2.00;;;1.90;;
31378;SDS011;61664;48.112;11.662;2023-08-06T01:54:25;2.58;;;2.38;;
31378;SDS011;61664;48.112;11.662;2023-08-06T01:56:54;2.25;;;2.15;;
31378;SDS011;61664;48.112;11.662;2023-08-06T01:59:20;2.33;;;2.13;;
31378;SDS011;61664;48.112;11.662;2023-08-06T02:01:47;2.22;;;2.13;;
31378;SDS011;61664;48.112;11.662;2023-08-06T02:04:14;3.67;;;2.40;;
31378;SDS011;61664;48.112;11.662;2023-08-06T02:06:41;1.98;;;1.88;;
31378;SDS011;61664;48.112;11.662;2023-08-06T02:09:08;2.20;;;1.60;;
31378;SDS011;61664;48.112;11.662;2023-08-06T02:11:35;2.20;;;1.23;;
31378;SDS011;61664;48.112;11.662;2023-08-06T02:14:02;1.20;;;1.20;;
31378;SDS011;61664;48.112;11.662;2023-08-06T02:16:28;1.30;;;1.17;;
31378;SDS011;61664;48.112;11.662;2023-08-06T02:18:55;1.25;;;1.25;;
31378;SDS011;61664;48.112;11.662;2023-08-06T02:21:22;1.20;;;1.10;;
31378;SDS011;61664;48.112;11.662;2023-08-06T02:23:49;1.00;;;1.00;;
31378;SDS011;61664;48.112;11.662;2023-08-06T02:26:16;0.98;;;0.95;;
31378;SDS011;61664;48.112;11.662;2023-08-06T02:28:43;1.98;;;1.20;;
31378;SDS011;61664;48.112;11.662;2023-08-06T02:31:10;0.88;;;0.88;;
31378;SDS011;61664;48.112;11.662;2023-08-06T02:33:37;1.05;;;0.73;;
31378;SDS011;61664;48.112;11.662;2023-08-06T02:36:04;1.00;;;1.00;;
31378;SDS011;61664;48.112;11.662;2023-08-06T02:38:31;0.70;;;0.70;;
31378;SDS011;61664;48.112;11.662;2023-08-06T02:40:58;0.80;;;0.80;;
31378;SDS011;61664;48.112;11.662;2023-08-06T02:43:29;0.90;;;0.90;;
31378;SDS011;61664;48.112;11.662;2023-08-06T02:45:57;0.52;;;0.52;;
31378;SDS011;61664;48.112;11.662;2023-08-06T02:48:25;0.73;;;0.73;;
31378;SDS011;61664;48.112;11.662;2023-08-06T02:50:52;0.60;;;0.60;;
31378;SDS011;61664;48.112;11.662;2023-08-06T02:53:26;0.70;;;0.70;;
31378;SDS011;61664;48.112;11.662;2023-08-06T02:55:56;0.70;;;0.70;;
31378;SDS011;61664;48.112;11.662;2023-08-06T02:58:23;0.65;;;0.65;;
31378;SDS011;61664;48.112;11.662;2023-08-06T03:01:03;0.50;;;0.50;;
31378;SDS011;61664;48.112;11.662;2023-08-06T03:03:32;0.60;;;0.60;;
31378;SDS011;61664;48.112;11.662;2023-08-06T03:06:00;0.43;;;0.43;;
31378;SDS011;61664;48.112;11.662;2023-08-06T03:08:28;0.70;;;0.70;;
31378;SDS011;61664;48.112;11.662;2023-08-06T03:10:55;0.60;;;0.60;;
31378;SDS011;61664;48.112;11.662;2023-08-06T03:13:22;0.65;;;0.65;;
31378;SDS011;61664;48.112;11.662;2023-08-06T03:15:53;0.45;;;0.45;;
31378;SDS011;61664;48.112;11.662;2023-08-06T03:18:20;0.47;;;0.47;;
31378;SDS011;61664;48.112;11.662;2023-08-06T03:20:48;0.60;;;0.60;;
31378;SDS011;61664;48.112;11.662;2023-08-06T03:23:15;0.60;;;0.60;;
31378;SDS011;61664;48.112;11.662;2023-08-06T03:25:42;0.80;;;0.80;;
31378;SDS011;61664;48.112;11.662;2023-08-06T03:28:09;0.57;;;0.57;;
31378;SDS011;61664;48.112;11.662;2023-08-06T03:30:37;0.70;;;0.70;;
31378;SDS011;61664;48.112;11.662;2023-08-06T03:33:04;0.50;;;0.50;;
31378;SDS011;61664;48.112;11.662;2023-08-06T03:35:31;0.80;;;0.60;;
31378;SDS011;61664;48.112;11.662;2023-08-06T03:37:58;0.70;;;0.70;;
31378;SDS011;61664;48.112;11.662;2023-08-06T03:40:25;0.40;;;0.40;;
31378;SDS011;61664;48.112;11.662;2023-08-06T03:42:52;0.57;;;0.57;;
31378;SDS011;61664;48.112;11.662;2023-08-06T03:45:19;0.45;;;0.45;;
31378;SDS011;61664;48.112;11.662;2023-08-06T03:47:45;0.70;;;0.68;;
31378;SDS011;61664;48.112;11.662;2023-08-06T03:50:12;0.50;;;0.50;;
31378;SDS011;61664;48.112;11.662;2023-08-06T03:52:40;0.73;;;0.55;;
31378;SDS011;61664;48.112;11.662;2023-08-06T03:55:06;0.65;;;0.50;;
31378;SDS011;61664;48.112;11.662;2023-08-06T03:57:33;0.40;;;0.40;;
31378;SDS011;61664;48.112;11.662;2023-08-06T04:00:01;0.60;;;0.45;;
31378;SDS011;61664;48.112;11.662;2023-08-06T04:02:29;0.60;;;0.60;;
31378;SDS011;61664;48.112;11.662;2023-08-06T04:04:56;0.60;;;0.60;;
31378;SDS011;61664;48.112;11.662;2023-08-06T04:07:25;0.70;;;0.70;;
31378;SDS011;61664;48.112;11.662;2023-08-06T04:09:56;0.40;;;0.40;;
31378;SDS011;61664;48.112;11.662;2023-08-06T04:12:25;0.50;;;0.50;;
31378;SDS011;61664;48.112;11.662;2023-08-06T04:14:53;0.40;;;0.40;;
31378;SDS011;61664;48.112;11.662;2023-08-06T04:17:21;0.40;;;0.40;;
31378;SDS011;61664;48.112;11.662;2023-08-06T04:19:51;0.70;;;0.68;;
31378;SDS011;61664;48.112;11.662;2023-08-06T04:22:20;1.00;;;0.57;;
31378;SDS011;61664;48.112;11.662;2023-08-06T04:24:48;0.40;;;0.40;;
31378;SDS011;61664;48.112;11.662;2023-08-06T04:27:15;0.40;;;0.40;;
31378;SDS011;61664;48.112;11.662;2023-08-06T04:29:42;0.40;;;0.40;;
31378;SDS011;61664;48.112;11.662;2023-08-06T04:32:10;0.50;;;0.50;;
31378;SDS011;61664;48.112;11.662;2023-08-06T04:34:37;0.40;;;0.40;;
31378;SDS011;61664;48.112;11.662;2023-08-06T04:37:04;0.40;;;0.40;;
31378;SDS011;61664;48.112;11.662;2023-08-06T04:39:31;0.30;;;0.30;;
31378;SDS011;61664;48.112;11.662;2023-08-06T04:41:58;0.52;;;0.52;;
31378;SDS011;61664;48.112;11.662;2023-08-06T04:44:25;0.63;;;0.60;;
31378;SDS011;61664;48.112;11.662;2023-08-06T04:46:52;0.60;;;0.60;;
31378;SDS011;61664;48.112;11.662;2023-08-06T04:49:20;0.52;;;0.40;;
31378;SDS011;61664;48.112;11.662;2023-08-06T04:51:47;0.50;;;0.50;;
31378;SDS011;61664;48.112;11.662;2023-08-06T04:54:14;0.50;;;0.43;;
31378;SDS011;61664;48.112;11.662;2023-08-06T04:56:41;0.85;;;0.47;;
31378;SDS011;61664;48.112;11.662;2023-08-06T04:59:08;0.50;;;0.50;;
31378;SDS011;61664;48.112;11.662;2023-08-06T05:01:35;0.93;;;0.60;;
31378;SDS011;61664;48.112;11.662;2023-08-06T05:04:02;0.60;;;0.60;;
31378;SDS011;61664;48.112;11.662;2023-08-06T05:06:31;0.73;;;0.73;;
31378;SDS011;61664;48.112;11.662;2023-08-06T05:08:58;0.30;;;0.30;;
31378;SDS011;61664;48.112;11.662;2023-08-06T05:11:25;0.40;;;0.40;;
31378;SDS011;61664;48.112;11.662;2023-08-06T05:13:52;0.30;;;0.30;;
31378;SDS011;61664;48.112;11.662;2023-08-06T05:16:19;0.40;;;0.40;;
31378;SDS011;61664;48.112;11.662;2023-08-06T05:18:46;0.40;;;0.40;;
31378;SDS011;61664;48.112;11.662;2023-08-06T05:21:13;0.52;;;0.52;;
31378;SDS011;61664;48.112;11.662;2023-08-06T05:23:40;0.95;;;0.60;;
31378;SDS011;61664;48.112;11.662;2023-08-06T05:26:07;0.80;;;0.47;;
31378;SDS011;61664;48.112;11.662;2023-08-06T05:28:34;0.50;;;0.50;;
31378;SDS011;61664;48.112;11.662;2023-08-06T05:31:04;0.70;;;0.40;;
31378;SDS011;61664;48.112;11.662;2023-08-06T05:33:31;0.43;;;0.43;;
31378;SDS011;61664;48.112;11.662;2023-08-06T05:35:58;0.30;;;0.30;;
31378;SDS011;61664;48.112;11.662;2023-08-06T05:40:53;0.30;;;0.30;;
31378;SDS011;61664;48.112;11.662;2023-08-06T05:43:20;0.38;;;0.38;;
31378;SDS011;61664;48.112;11.662;2023-08-06T05:45:49;0.55;;;0.45;;
31378;SDS011;61664;48.112;11.662;2023-08-06T05:48:16;0.60;;;0.50;;
31378;SDS011;61664;48.112;11.662;2023-08-06T05:50:44;0.45;;;0.40;;
31378;SDS011;61664;48.112;11.662;2023-08-06T05:53:10;0.43;;;0.43;;
31378;SDS011;61664;48.112;11.662;2023-08-06T05:55:38;0.50;;;0.50;;
31378;SDS011;61664;48.112;11.662;2023-08-06T05:58:05;0.40;;;0.40;;
31378;SDS011;61664;48.112;11.662;2023-08-06T06:00:32;0.70;;;0.70;;
31378;SDS011;61664;48.112;11.662;2023-08-06T06:02:59;0.40;;;0.40;;
31378;SDS011;61664;48.112;11.662;2023-08-06T06:05:26;0.50;;;0.50;;
31378;SDS011;61664;48.112;11.662;2023-08-06T06:07:53;0.45;;;0.45;;
31378;SDS011;61664;48.112;11.662;2023-08-06T06:10:20;0.50;;;0.50;;
31378;SDS011;61664;48.112;11.662;2023-08-06T06:12:47;0.40;;;0.40;;
31378;SDS011;61664;48.112;11.662;2023-08-06T06:15:13;0.60;;;0.60;;
31378;SDS011;61664;48.112;11.662;2023-08-06T06:17:40;0.40;;;0.40;;
31378;SDS011;61664;48.112;11.662;2023-08-06T06:20:08;1.67;;;0.38;;
31378;SDS011;61664;48.112;11.662;2023-08-06T06:22:35;0.40;;;0.40;;
31378;SDS011;61664;48.112;11.662;2023-08-06T06:25:02;0.40;;;0.30;;
31378;SDS011;61664;48.112;11.662;2023-08-06T06:27:29;0.40;;;0.40;;
31378;SDS011;61664;48.112;11.662;2023-08-06T06:29:56;0.50;;;0.50;;
31378;SDS011;61664;48.112;11.662;2023-08-06T06:32:23;0.60;;;0.60;;
31378;SDS011;61664;48.112;11.662;2023-08-06T06:34:50;0.32;;;0.32;;
31378;SDS011;61664;48.112;11.662;2023-08-06T06:37:17;0.40;;;0.40;;
31378;SDS011;61664;48.112;11.662;2023-08-06T06:39:44;0.70;;;0.70;;
31378;SDS011;61664;48.112;11.662;2023-08-06T06:42:11;0.57;;;0.55;;
31378;SDS011;61664;48.112;11.662;2023-08-06T06:44:38;0.50;;;0.45;;
31378;SDS011;61664;48.112;11.662;2023-08-06T06:47:05;0.40;;;0.40;;
31378;SDS011;61664;48.112;11.662;2023-08-06T06:49:32;0.50;;;0.50;;
31378;SDS011;61664;48.112;11.662;2023-08-06T06:51:58;0.50;;;0.50;;
31378;SDS011;61664;48.112;11.662;2023-08-06T06:54:25;1.23;;;0.73;;
31378;SDS011;61664;48.112;11.662;2023-08-06T06:56:52;0.50;;;0.50;;
31378;SDS011;61664;48.112;11.662;2023-08-06T06:59:19;0.40;;;0.40;;
31378;SDS011;61664;48.112;11.662;2023-08-06T07:01:46;0.55;;;0.55;;
31378;SDS011;61664;48.112;11.662;2023-08-06T07:04:13;0.40;;;0.40;;
31378;SDS011;61664;48.112;11.662;2023-08-06T07:06:40;0.40;;;0.40;;
31378;SDS011;61664;48.112;11.662;2023-08-06T07:09:07;0.45;;;0.40;;
31378;SDS011;61664;48.112;11.662;2023-08-06T07:11:34;0.60;;;0.50;;
31378;SDS011;61664;48.112;11.662;2023-08-06T07:14:01;0.40;;;0.40;;
31378;SDS011;61664;48.112;11.662;2023-08-06T07:16:28;0.30;;;0.30;;
31378;SDS011;61664;48.112;11.662;2023-08-06T07:18:55;0.30;;;0.30;;
31378;SDS011;61664;48.112;11.662;2023-08-06T07:21:22;0.30;;;0.30;;
31378;SDS011;61664;48.112;11.662;2023-08-06T07:23:49;0.32;;;0.32;;
31378;SDS011;61664;48.112;11.662;2023-08-06T07:26:17;0.30;;;0.30;;
31378;SDS011;61664;48.112;11.662;2023-08-06T07:28:44;0.20;;;0.20;;
31378;SDS011;61664;48.112;11.662;2023-08-06T07:31:11;0.50;;;0.30;;
31378;SDS011;61664;48.112;11.662;2023-08-06T07:33:38;0.30;;;0.30;;
31378;SDS011;61664;48.112;11.662;2023-08-06T07:36:12;0.30;;;0.20;;
31378;SDS011;61664;48.112;11.662;2023-08-06T07:38:40;0.22;;;0.20;;
31378;SDS011;61664;48.112;11.662;2023-08-06T07:41:08;2.42;;;0.28;;
31378;SDS011;61664;48.112;11.662;2023-08-06T07:43:35;0.10;;;0.10;;
31378;SDS011;61664;48.112;11.662;2023-08-06T07:46:02;0.28;;;0.17;;
31378;SDS011;61664;48.112;11.662;2023-08-06T07:48:30;0.63;;;0.45;;
31378;SDS011;61664;48.112;11.662;2023-08-06T07:50:57;0.50;;;0.13;;
31378;SDS011;61664;48.112;11.662;2023-08-06T07:53:24;0.30;;;0.20;;
31378;SDS011;61664;48.112;11.662;2023-08-06T07:55:58;0.15;;;0.15;;
31378;SDS011;61664;48.112;11.662;2023-08-06T07:58:25;0.25;;;0.20;;
31378;SDS011;61664;48.112;11.662;2023-08-06T08:00:53;0.47;;;0.20;;
31378;SDS011;61664;48.112;11.662;2023-08-06T08:03:20;0.28;;;0.22;;
31378;SDS011;61664;48.112;11.662;2023-08-06T08:05:47;0.45;;;0.13;;
31378;SDS011;61664;48.112;11.662;2023-08-06T08:08:14;0.20;;;0.20;;
31378;SDS011;61664;48.112;11.662;2023-08-06T08:10:41;0.15;;;0.10;;
31378;SDS011;61664;48.112;11.662;2023-08-06T08:13:08;0.13;;;0.13;;
31378;SDS011;61664;48.112;11.662;2023-08-06T08:15:36;2.08;;;0.30;;
31378;SDS011;61664;48.112;11.662;2023-08-06T08:18:03;0.40;;;0.20;;
31378;SDS011;61664;48.112;11.662;2023-08-06T08:20:30;0.30;;;0.30;;
31378;SDS011;61664;48.112;11.662;2023-08-06T08:23:01;0.45;;;0.20;;
31378;SDS011;61664;48.112;11.662;2023-08-06T08:25:29;0.45;;;0.30;;
31378;SDS011;61664;48.112;11.662;2023-08-06T08:27:58;0.50;;;0.40;;
31378;SDS011;61664;48.112;11.662;2023-08-06T08:30:24;0.40;;;0.30;;
31378;SDS011;61664;48.112;11.662;2023-08-06T08:32:52;0.20;;;0.20;;
31378;SDS011;61664;48.112;11.662;2023-08-06T08:35:19;0.28;;;0.25;;
31378;SDS011;61664;48.112;11.662;2023-08-06T08:37:46;0.43;;;0.22;;
31378;SDS011;61664;48.112;11.662;2023-08-06T08:40:14;0.20;;;0.20;;
31378;SDS011;61664;48.112;11.662;2023-08-06T08:42:44;0.28;;;0.28;;
31378;SDS011;61664;48.112;11.662;2023-08-06T08:45:12;0.38;;;0.20;;
31378;SDS011;61664;48.112;11.662;2023-08-06T08:47:41;0.35;;;0.20;;
31378;SDS011;61664;48.112;11.662;2023-08-06T08:50:09;0.10;;;0.10;;
31378;SDS011;61664;48.112;11.662;2023-08-06T08:52:38;0.88;;;0.20;;
31378;SDS011;61664;48.112;11.662;2023-08-06T08:55:07;0.10;;;0.10;;
31378;SDS011;61664;48.112;11.662;2023-08-06T08:57:34;0.10;;;0.10;;
31378;SDS011;61664;48.112;11.662;2023-08-06T09:00:02;0.80;;;0.17;;
31378;SDS011;61664;48.112;11.662;2023-08-06T09:02:31;0.30;;;0.20;;
31378;SDS011;61664;48.112;11.662;2023-08-06T09:05:00;0.05;;;0.05;;
31378;SDS011;61664;48.112;11.662;2023-08-06T09:07:32;0.38;;;0.10;;
31378;SDS011;61664;48.112;11.662;2023-08-06T09:10:10;0.28;;;0.10;;
31378;SDS011;61664;48.112;11.662;2023-08-06T09:12:39;0.20;;;0.10;;
31378;SDS011;61664;48.112;11.662;2023-08-06T09:15:07;0.40;;;0.40;;
31378;SDS011;61664;48.112;11.662;2023-08-06T09:17:35;0.20;;;0.10;;
31378;SDS011;61664;48.112;11.662;2023-08-06T09:20:12;1.90;;;0.60;;
31378;SDS011;61664;48.112;11.662;2023-08-06T09:22:40;1.83;;;0.55;;
31378;SDS011;61664;48.112;11.662;2023-08-06T09:25:08;0.43;;;0.10;;
31378;SDS011;61664;48.112;11.662;2023-08-06T09:27:40;0.22;;;0.10;;
31378;SDS011;61664;48.112;11.662;2023-08-06T09:30:07;0.20;;;0.10;;
31378;SDS011;61664;48.112;11.662;2023-08-06T09:32:47;0.20;;;0.10;;
31378;SDS011;61664;48.112;11.662;2023-08-06T09:35:18;1.08;;;0.10;;
31378;SDS011;61664;48.112;11.662;2023-08-06T09:37:48;0.15;;;0.10;;
31378;SDS011;61664;48.112;11.662;2023-08-06T09:40:25;0.38;;;0.10;;
31378;SDS011;61664;48.112;11.662;2023-08-06T09:42:59;0.13;;;0.10;;
31378;SDS011;61664;48.112;11.662;2023-08-06T09:45:32;0.65;;;0.20;;
31378;SDS011;61664;48.112;11.662;2023-08-06T09:48:07;0.03;;;0.03;;
31378;SDS011;61664;48.112;11.662;2023-08-06T09:50:36;0.38;;;0.10;;
31378;SDS011;61664;48.112;11.662;2023-08-06T09:53:05;0.30;;;0.10;;
31378;SDS011;61664;48.112;11.662;2023-08-06T09:55:37;0.10;;;0.10;;
31378;SDS011;61664;48.112;11.662;2023-08-06T09:58:05;0.00;;;0.00;;
31378;SDS011;61664;48.112;11.662;2023-08-06T10:00:34;0.17;;;0.17;;
31378;SDS011;61664;48.112;11.662;2023-08-06T10:03:05;0.10;;;0.05;;
31378;SDS011;61664;48.112;11.662;2023-08-06T10:05:34;0.10;;;0.10;;
31378;SDS011;61664;48.112;11.662;2023-08-06T10:08:03;0.00;;;0.00;;
31378;SDS011;61664;48.112;11.662;2023-08-06T10:10:33;0.00;;;0.00;;
31378;SDS011;61664;48.112;11.662;2023-08-06T10:13:00;0.10;;;0.10;;
31378;SDS011;61664;48.112;11.662;2023-08-06T10:15:31;0.70;;;0.08;;
31378;SDS011;61664;48.112;11.662;2023-08-06T10:17:59;5.25;;;0.17;;
31378;SDS011;61664;48.112;11.662;2023-08-06T10:20:32;0.10;;;0.00;;
31378;SDS011;61664;48.112;11.662;2023-08-06T10:23:01;0.30;;;0.00;;
31378;SDS011;61664;48.112;11.662;2023-08-06T10:25:31;0.20;;;0.10;;
31378;SDS011;61664;48.112;11.662;2023-08-06T10:28:00;0.20;;;0.20;;
31378;SDS011;61664;48.112;11.662;2023-08-06T10:30:44;0.13;;;0.08;;
31378;SDS011;61664;48.112;11.662;2023-08-06T10:33:13;0.00;;;0.00;;
31378;SDS011;61664;48.112;11.662;2023-08-06T10:38:21;0.10;;;0.08;;
31378;SDS011;61664;48.112;11.662;2023-08-06T10:43:35;0.30;;;0.10;;
31378;SDS011;61664;48.112;11.662;2023-08-06T10:46:09;0.03;;;0.03;;
31378;SDS011;61664;48.112;11.662;2023-08-06T10:48:41;0.00;;;0.00;;
31378;SDS011;61664;48.112;11.662;2023-08-06T10:51:15;0.10;;;0.10;;
31378;SDS011;61664;48.112;11.662;2023-08-06T10:53:42;0.00;;;0.00;;
31378;SDS011;61664;48.112;11.662;2023-08-06T10:56:12;0.20;;;0.00;;
31378;SDS011;61664;48.112;11.662;2023-08-06T10:58:40;0.00;;;0.00;;
31378;SDS011;61664;48.112;11.662;2023-08-06T11:01:12;0.20;;;0.10;;
31378;SDS011;61664;48.112;11.662;2023-08-06T11:03:40;0.13;;;0.03;;
31378;SDS011;61664;48.112;11.662;2023-08-06T11:06:10;0.13;;;0.00;;
31378;SDS011;61664;48.112;11.662;2023-08-06T11:08:37;0.00;;;0.00;;
31378;SDS011;61664;48.112;11.662;2023-08-06T11:11:13;0.10;;;0.10;;
31378;SDS011;61664;48.112;11.662;2023-08-06T11:13:42;0.00;;;0.00;;
31378;SDS011;61664;48.112;11.662;2023-08-06T11:16:14;0.28;;;0.10;;
31378;SDS011;61664;48.112;11.662;2023-08-06T11:18:44;0.10;;;0.10;;
31378;SDS011;61664;48.112;11.662;2023-08-06T11:21:18;0.00;;;0.00;;
31378;SDS011;61664;48.112;11.662;2023-08-06T11:23:46;0.45;;;0.00;;
31378;SDS011;61664;48.112;11.662;2023-08-06T11:26:18;0.00;;;0.00;;
31378;SDS011;61664;48.112;11.662;2023-08-06T11:28:53;0.13;;;0.00;;
31378;SDS011;61664;48.112;11.662;2023-08-06T11:31:24;0.10;;;0.00;;
31378;SDS011;61664;48.112;11.662;2023-08-06T11:33:51;0.10;;;0.00;;
31378;SDS011;61664;48.112;11.662;2023-08-06T11:36:29;0.30;;;0.10;;
31378;SDS011;61664;48.112;11.662;2023-08-06T11:38:58;0.10;;;0.00;;
31378;SDS011;61664;48.112;11.662;2023-08-06T11:41:30;0.00;;;0.00;;
31378;SDS011;61664;48.112;11.662;2023-08-06T11:43:58;0.10;;;0.00;;
31378;SDS011;61664;48.112;11.662;2023-08-06T11:46:26;0.03;;;0.03;;
31378;SDS011;61664;48.112;11.662;2023-08-06T11:48:58;0.00;;;0.00;;
31378;SDS011;61664;48.112;11.662;2023-08-06T11:51:25;1.77;;;0.10;;
31378;SDS011;61664;48.112;11.662;2023-08-06T11:53:56;2.20;;;0.10;;
31378;SDS011;61664;48.112;11.662;2023-08-06T11:56:26;0.77;;;0.00;;
31378;SDS011;61664;48.112;11.662;2023-08-06T11:58:54;0.10;;;0.10;;
31378;SDS011;61664;48.112;11.662;2023-08-06T12:01:22;0.10;;;0.10;;
31378;SDS011;61664;48.112;11.662;2023-08-06T12:03:49;0.00;;;0.00;;
31378;SDS011;61664;48.112;11.662;2023-08-06T12:06:16;0.00;;;0.00;;
31378;SDS011;61664;48.112;11.662;2023-08-06T12:08:43;0.20;;;0.00;;
31378;SDS011;61664;48.112;11.662;2023-08-06T12:11:10;0.00;;;0.00;;
31378;SDS011;61664;48.112;11.662;2023-08-06T12:13:37;0.00;;;0.00;;
31378;SDS011;61664;48.112;11.662;2023-08-06T12:16:04;0.00;;;0.00;;
31378;SDS011;61664;48.112;11.662;2023-08-06T12:18:31;0.10;;;0.10;;
31378;SDS011;61664;48.112;11.662;2023-08-06T12:20:58;0.00;;;0.00;;
31378;SDS011;61664;48.112;11.662;2023-08-06T12:23:25;0.10;;;0.00;;
31378;SDS011;61664;48.112;11.662;2023-08-06T12:25:52;0.00;;;0.00;;
31378;SDS011;61664;48.112;11.662;2023-08-06T12:28:19;0.10;;;0.05;;
31378;SDS011;61664;48.112;11.662;2023-08-06T12:30:49;0.00;;;0.00;;
31378;SDS011;61664;48.112;11.662;2023-08-06T12:33:16;0.10;;;0.10;;
31378;SDS011;61664;48.112;11.662;2023-08-06T12:35:43;0.00;;;0.00;;
31378;SDS011;61664;48.112;11.662;2023-08-06T12:38:10;0.22;;;0.00;;
31378;SDS011;61664;48.112;11.662;2023-08-06T12:40:37;0.00;;;0.00;;
31378;SDS011;61664;48.112;11.662;2023-08-06T12:43:09;0.10;;;0.10;;
31378;SDS011;61664;48.112;11.662;2023-08-06T12:45:35;0.10;;;0.10;;
31378;SDS011;61664;48.112;11.662;2023-08-06T12:48:02;0.05;;;0.00;;
31378;SDS011;61664;48.112;11.662;2023-08-06T12:50:30;0.05;;;0.05;;
31378;SDS011;61664;48.112;11.662;2023-08-06T12:52:59;0.00;;;0.00;;
31378;SDS011;61664;48.112;11.662;2023-08-06T12:55:26;0.10;;;0.10;;
31378;SDS011;61664;48.112;11.662;2023-08-06T12:57:58;0.00;;;0.00;;
31378;SDS011;61664;48.112;11.662;2023-08-06T13:00:26;0.00;;;0.00;;
31378;SDS011;61664;48.112;11.662;2023-08-06T13:02:53;0.10;;;0.10;;
31378;SDS011;61664;48.112;11.662;2023-08-06T13:05:20;0.20;;;0.10;;
31378;SDS011;61664;48.112;11.662;2023-08-06T13:07:47;0.10;;;0.10;;
31378;SDS011;61664;48.112;11.662;2023-08-06T13:10:14;0.57;;;0.10;;
31378;SDS011;61664;48.112;11.662;2023-08-06T13:12:41;0.32;;;0.32;;
31378;SDS011;61664;48.112;11.662;2023-08-06T13:15:09;0.10;;;0.10;;
31378;SDS011;61664;48.112;11.662;2023-08-06T13:17:36;0.00;;;0.00;;
31378;SDS011;61664;48.112;11.662;2023-08-06T13:20:03;0.10;;;0.10;;
31378;SDS011;61664;48.112;11.662;2023-08-06T13:22:31;0.13;;;0.10;;
31378;SDS011;61664;48.112;11.662;2023-08-06T13:24:58;0.05;;;0.05;;
31378;SDS011;61664;48.112;11.662;2023-08-06T13:27:25;0.20;;;0.00;;
31378;SDS011;61664;48.112;11.662;2023-08-06T13:29:52;0.10;;;0.00;;
31378;SDS011;61664;48.112;11.662;2023-08-06T13:32:19;0.10;;;0.10;;
31378;SDS011;61664;48.112;11.662;2023-08-06T13:34:46;1.25;;;0.05;;
31378;SDS011;61664;48.112;11.662;2023-08-06T13:37:12;0.08;;;0.08;;
31378;SDS011;61664;48.112;11.662;2023-08-06T13:39:39;0.10;;;0.00;;
31378;SDS011;61664;48.112;11.662;2023-08-06T13:42:06;0.00;;;0.00;;
31378;SDS011;61664;48.112;11.662;2023-08-06T13:44:33;0.00;;;0.00;;
31378;SDS011;61664;48.112;11.662;2023-08-06T13:47:02;0.10;;;0.00;;
31378;SDS011;61664;48.112;11.662;2023-08-06T13:49:29;0.03;;;0.00;;
31378;SDS011;61664;48.112;11.662;2023-08-06T13:51:56;0.40;;;0.10;;
31378;SDS011;61664;48.112;11.662;2023-08-06T13:54:41;0.65;;;0.10;;
31378;SDS011;61664;48.112;11.662;2023-08-06T13:57:08;0.10;;;0.10;;
31378;SDS011;61664;48.112;11.662;2023-08-06T13:59:35;0.05;;;0.00;;
31378;SDS011;61664;48.112;11.662;2023-08-06T14:02:02;0.10;;;0.00;;
31378;SDS011;61664;48.112;11.662;2023-08-06T14:04:29;0.00;;;0.00;;
31378;SDS011;61664;48.112;11.662;2023-08-06T14:06:56;0.10;;;0.10;;
31378;SDS011;61664;48.112;11.662;2023-08-06T14:09:23;0.00;;;0.00;;
31378;SDS011;61664;48.112;11.662;2023-08-06T14:11:50;0.20;;;0.10;;
31378;SDS011;61664;48.112;11.662;2023-08-06T14:14:17;0.55;;;0.10;;
31378;SDS011;61664;48.112;11.662;2023-08-06T14:16:43;0.13;;;0.10;;
31378;SDS011;61664;48.112;11.662;2023-08-06T14:19:10;0.65;;;0.10;;
31378;SDS011;61664;48.112;11.662;2023-08-06T14:21:37;0.10;;;0.10;;
31378;SDS011;61664;48.112;11.662;2023-08-06T14:24:04;0.32;;;0.10;;
31378;SDS011;61664;48.112;11.662;2023-08-06T14:26:31;0.10;;;0.10;;
31378;SDS011;61664;48.112;11.662;2023-08-06T14:28:58;0.20;;;0.20;;
31378;SDS011;61664;48.112;11.662;2023-08-06T14:31:26;0.05;;;0.05;;
31378;SDS011;61664;48.112;11.662;2023-08-06T14:33:53;0.40;;;0.40;;
31378;SDS011;61664;48.112;11.662;2023-08-06T14:36:20;0.10;;;0.10;;
31378;SDS011;61664;48.112;11.662;2023-08-06T14:38:47;0.40;;;0.20;;
31378;SDS011;61664;48.112;11.662;2023-08-06T14:41:25;7.10;;;3.90;;
31378;SDS011;61664;48.112;11.662;2023-08-06T14:43:53;10.63;;;5.65;;
31378;SDS011;61664;48.112;11.662;2023-08-06T14:46:23;5.82;;;3.30;;
31378;SDS011;61664;48.112;11.662;2023-08-06T14:48:50;2.85;;;2.22;;
31378;SDS011;61664;48.112;11.662;2023-08-06T14:51:17;0.95;;;0.63;;
31378;SDS011;61664;48.112;11.662;2023-08-06T14:53:47;3.20;;;0.50;;
31378;SDS011;61664;48.112;11.662;2023-08-06T14:56:14;0.20;;;0.20;;